sensor_id;sensor_type;location;lat;lon;timestamp;P1;durP1;ratioP1;P2;durP2;ratioP2
11854;SDS011;5987;53.140;8.904;2022-07-29T00:00:00;4.20;;;2.17;;
11854;SDS011;5987;53.140;8.904;2022-07-29T00:03:06;2.70;;;1.90;;
11854;SDS011;5987;53.140;8.904;2022-07-29T00:06:11;3.33;;;2.13;;
11854;SDS011;5987;53.140;8.904;2022-07-29T00:09:15;3.43;;;1.70;;
11854;SDS011;5987;53.140;8.904;2022-07-29T00:12:19;3.47;;;1.87;;
11854;SDS011;5987;53.140;8.904;2022-07-29T00:15:26;3.10;;;1.77;;
11854;SDS011;5987;53.140;8.904;2022-07-29T00:18:30;3.13;;;1.70;;
11854;SDS011;5987;53.140;8.904;2022-07-29T00:21:35;5.00;;;1.60;;
11854;SDS011;5987;53.140;8.904;2022-07-29T00:24:39;2.67;;;1.70;;
11854;SDS011;5987;53.140;8.904;2022-07-29T00:27:43;3.10;;;1.87;;
11854;SDS011;5987;53.140;8.904;2022-07-29T00:30:47;2.93;;;1.70;;
11854;SDS011;5987;53.140;8.904;2022-07-29T00:33:51;5.50;;;2.10;;
11854;SDS011;5987;53.140;8.904;2022-07-29T00:36:56;2.97;;;1.83;;
11854;SDS011;5987;53.140;8.904;2022-07-29T00:39:59;3.47;;;1.90;;
11854;SDS011;5987;53.140;8.904;2022-07-29T00:43:03;6.03;;;2.13;;
11854;SDS011;5987;53.140;8.904;2022-07-29T00:46:07;4.80;;;2.10;;
11854;SDS011;5987;53.140;8.904;2022-07-29T00:49:11;4.40;;;1.90;;
11854;SDS011;5987;53.140;8.904;2022-07-29T00:52:16;4.67;;;1.80;;
11854;SDS011;5987;53.140;8.904;2022-07-29T00:55:20;2.47;;;1.67;;
11854;SDS011;5987;53.140;8.904;2022-07-29T00:58:25;2.00;;;1.60;;
11854;SDS011;5987;53.140;8.904;2022-07-29T01:01:30;3.37;;;1.90;;
11854;SDS011;5987;53.140;8.904;2022-07-29T01:04:33;4.90;;;1.70;;
11854;SDS011;5987;53.140;8.904;2022-07-29T01:07:39;1.90;;;1.77;;
11854;SDS011;5987;53.140;8.904;2022-07-29T01:10:44;1.73;;;1.53;;
11854;SDS011;5987;53.140;8.904;2022-07-29T01:13:49;4.77;;;1.70;;
11854;SDS011;5987;53.140;8.904;2022-07-29T01:17:06;2.57;;;1.60;;
11854;SDS011;5987;53.140;8.904;2022-07-29T01:20:17;2.43;;;1.77;;
11854;SDS011;5987;53.140;8.904;2022-07-29T01:27:14;3.33;;;1.57;;
11854;SDS011;5987;53.140;8.904;2022-07-29T01:30:44;3.87;;;1.47;;
11854;SDS011;5987;53.140;8.904;2022-07-29T01:33:55;3.73;;;1.60;;
11854;SDS011;5987;53.140;8.904;2022-07-29T01:37:06;4.80;;;1.77;;
11854;SDS011;5987;53.140;8.904;2022-07-29T01:40:19;2.03;;;1.90;;
11854;SDS011;5987;53.140;8.904;2022-07-29T01:43:27;5.77;;;1.70;;
11854;SDS011;5987;53.140;8.904;2022-07-29T01:46:44;5.03;;;1.57;;
11854;SDS011;5987;53.140;8.904;2022-07-29T01:49:55;3.17;;;1.70;;
11854;SDS011;5987;53.140;8.904;2022-07-29T01:53:03;4.83;;;2.07;;
11854;SDS011;5987;53.140;8.904;2022-07-29T01:56:11;2.90;;;1.30;;
11854;SDS011;5987;53.140;8.904;2022-07-29T01:59:18;2.73;;;1.60;;
11854;SDS011;5987;53.140;8.904;2022-07-29T02:02:26;4.77;;;1.93;;
11854;SDS011;5987;53.140;8.904;2022-07-29T02:05:34;4.43;;;1.93;;
11854;SDS011;5987;53.140;8.904;2022-07-29T02:08:41;4.40;;;1.50;;
11854;SDS011;5987;53.140;8.904;2022-07-29T02:11:48;3.63;;;1.40;;
11854;SDS011;5987;53.140;8.904;2022-07-29T02:14:56;3.07;;;1.77;;
11854;SDS011;5987;53.140;8.904;2022-07-29T02:18:08;2.50;;;1.67;;
11854;SDS011;5987;53.140;8.904;2022-07-29T02:21:19;5.07;;;2.20;;
11854;SDS011;5987;53.140;8.904;2022-07-29T02:24:27;4.20;;;1.70;;
11854;SDS011;5987;53.140;8.904;2022-07-29T02:27:34;5.07;;;2.10;;
11854;SDS011;5987;53.140;8.904;2022-07-29T02:30:40;3.03;;;1.60;;
11854;SDS011;5987;53.140;8.904;2022-07-29T02:33:48;4.67;;;1.50;;
11854;SDS011;5987;53.140;8.904;2022-07-29T02:36:53;5.43;;;1.70;;
11854;SDS011;5987;53.140;8.904;2022-07-29T02:39:59;6.60;;;1.80;;
11854;SDS011;5987;53.140;8.904;2022-07-29T02:43:04;4.33;;;1.43;;
11854;SDS011;5987;53.140;8.904;2022-07-29T02:46:11;4.60;;;2.23;;
11854;SDS011;5987;53.140;8.904;2022-07-29T02:49:34;4.63;;;1.77;;
11854;SDS011;5987;53.140;8.904;2022-07-29T02:52:41;3.80;;;1.50;;
11854;SDS011;5987;53.140;8.904;2022-07-29T02:55:51;1.53;;;1.40;;
11854;SDS011;5987;53.140;8.904;2022-07-29T02:59:00;3.60;;;1.73;;
11854;SDS011;5987;53.140;8.904;2022-07-29T03:02:08;3.10;;;1.87;;
11854;SDS011;5987;53.140;8.904;2022-07-29T03:05:18;3.37;;;1.63;;
11854;SDS011;5987;53.140;8.904;2022-07-29T03:08:24;2.20;;;1.67;;
11854;SDS011;5987;53.140;8.904;2022-07-29T03:11:29;3.33;;;1.70;;
11854;SDS011;5987;53.140;8.904;2022-07-29T03:14:50;3.97;;;1.60;;
11854;SDS011;5987;53.140;8.904;2022-07-29T03:17:55;4.80;;;1.60;;
11854;SDS011;5987;53.140;8.904;2022-07-29T03:21:03;3.63;;;1.67;;
11854;SDS011;5987;53.140;8.904;2022-07-29T03:24:06;4.50;;;1.63;;
11854;SDS011;5987;53.140;8.904;2022-07-29T03:27:11;4.90;;;1.93;;
11854;SDS011;5987;53.140;8.904;2022-07-29T03:30:15;1.97;;;1.40;;
11854;SDS011;5987;53.140;8.904;2022-07-29T03:33:22;4.23;;;1.70;;
11854;SDS011;5987;53.140;8.904;2022-07-29T03:36:27;3.30;;;1.73;;
11854;SDS011;5987;53.140;8.904;2022-07-29T03:39:32;4.47;;;1.80;;
11854;SDS011;5987;53.140;8.904;2022-07-29T03:42:43;5.53;;;2.03;;
11854;SDS011;5987;53.140;8.904;2022-07-29T03:45:49;5.13;;;2.07;;
11854;SDS011;5987;53.140;8.904;2022-07-29T03:48:58;4.20;;;1.70;;
11854;SDS011;5987;53.140;8.904;2022-07-29T03:52:07;3.97;;;2.07;;
11854;SDS011;5987;53.140;8.904;2022-07-29T03:55:11;3.73;;;1.60;;
11854;SDS011;5987;53.140;8.904;2022-07-29T03:58:16;3.63;;;1.93;;
11854;SDS011;5987;53.140;8.904;2022-07-29T04:01:22;3.60;;;1.97;;
11854;SDS011;5987;53.140;8.904;2022-07-29T04:04:27;2.10;;;1.57;;
11854;SDS011;5987;53.140;8.904;2022-07-29T04:07:32;2.67;;;1.93;;
11854;SDS011;5987;53.140;8.904;2022-07-29T04:10:36;2.87;;;1.83;;
11854;SDS011;5987;53.140;8.904;2022-07-29T04:13:41;4.10;;;1.60;;
11854;SDS011;5987;53.140;8.904;2022-07-29T04:16:44;9.43;;;2.10;;
11854;SDS011;5987;53.140;8.904;2022-07-29T04:19:48;2.90;;;1.57;;
11854;SDS011;5987;53.140;8.904;2022-07-29T04:22:53;2.77;;;1.63;;
11854;SDS011;5987;53.140;8.904;2022-07-29T04:25:57;3.27;;;2.03;;
11854;SDS011;5987;53.140;8.904;2022-07-29T04:29:01;3.13;;;2.00;;
11854;SDS011;5987;53.140;8.904;2022-07-29T04:32:05;3.13;;;1.60;;
11854;SDS011;5987;53.140;8.904;2022-07-29T04:35:09;5.93;;;1.80;;
11854;SDS011;5987;53.140;8.904;2022-07-29T04:38:14;2.67;;;1.70;;
11854;SDS011;5987;53.140;8.904;2022-07-29T04:41:18;7.43;;;2.10;;
11854;SDS011;5987;53.140;8.904;2022-07-29T04:44:22;3.53;;;2.27;;
11854;SDS011;5987;53.140;8.904;2022-07-29T04:47:29;4.40;;;2.33;;
11854;SDS011;5987;53.140;8.904;2022-07-29T04:50:32;2.83;;;2.20;;
11854;SDS011;5987;53.140;8.904;2022-07-29T04:53:38;3.50;;;1.93;;
11854;SDS011;5987;53.140;8.904;2022-07-29T04:56:41;4.17;;;1.60;;
11854;SDS011;5987;53.140;8.904;2022-07-29T04:59:45;5.83;;;2.33;;
11854;SDS011;5987;53.140;8.904;2022-07-29T05:02:50;3.93;;;2.23;;
11854;SDS011;5987;53.140;8.904;2022-07-29T05:05:54;3.77;;;2.40;;
11854;SDS011;5987;53.140;8.904;2022-07-29T05:08:59;5.10;;;2.83;;
11854;SDS011;5987;53.140;8.904;2022-07-29T05:12:03;3.30;;;2.27;;
11854;SDS011;5987;53.140;8.904;2022-07-29T05:15:08;6.13;;;2.50;;
11854;SDS011;5987;53.140;8.904;2022-07-29T05:18:12;4.63;;;2.40;;
11854;SDS011;5987;53.140;8.904;2022-07-29T05:21:16;5.87;;;2.40;;
11854;SDS011;5987;53.140;8.904;2022-07-29T05:24:22;4.00;;;2.20;;
11854;SDS011;5987;53.140;8.904;2022-07-29T05:27:25;4.50;;;2.17;;
11854;SDS011;5987;53.140;8.904;2022-07-29T05:30:29;1.93;;;1.83;;
11854;SDS011;5987;53.140;8.904;2022-07-29T05:33:33;2.97;;;1.83;;
11854;SDS011;5987;53.140;8.904;2022-07-29T05:36:37;8.07;;;2.57;;
11854;SDS011;5987;53.140;8.904;2022-07-29T05:39:42;4.53;;;2.00;;
11854;SDS011;5987;53.140;8.904;2022-07-29T05:42:51;5.27;;;2.33;;
11854;SDS011;5987;53.140;8.904;2022-07-29T05:45:54;5.63;;;2.77;;
11854;SDS011;5987;53.140;8.904;2022-07-29T05:48:59;4.03;;;2.07;;
11854;SDS011;5987;53.140;8.904;2022-07-29T05:52:04;6.10;;;2.60;;
11854;SDS011;5987;53.140;8.904;2022-07-29T05:55:09;4.80;;;2.33;;
11854;SDS011;5987;53.140;8.904;2022-07-29T05:58:13;4.27;;;2.50;;
11854;SDS011;5987;53.140;8.904;2022-07-29T06:01:17;4.27;;;1.93;;
11854;SDS011;5987;53.140;8.904;2022-07-29T06:04:21;4.13;;;2.80;;
11854;SDS011;5987;53.140;8.904;2022-07-29T06:07:25;3.13;;;2.50;;
11854;SDS011;5987;53.140;8.904;2022-07-29T06:10:30;3.03;;;2.40;;
11854;SDS011;5987;53.140;8.904;2022-07-29T06:13:34;4.47;;;2.77;;
11854;SDS011;5987;53.140;8.904;2022-07-29T06:16:37;4.93;;;2.63;;
11854;SDS011;5987;53.140;8.904;2022-07-29T06:19:41;2.70;;;2.50;;
11854;SDS011;5987;53.140;8.904;2022-07-29T06:22:45;5.10;;;2.37;;
11854;SDS011;5987;53.140;8.904;2022-07-29T06:25:50;4.13;;;2.77;;
11854;SDS011;5987;53.140;8.904;2022-07-29T06:28:54;3.77;;;2.60;;
11854;SDS011;5987;53.140;8.904;2022-07-29T06:31:57;5.43;;;2.60;;
11854;SDS011;5987;53.140;8.904;2022-07-29T06:35:01;4.87;;;2.40;;
11854;SDS011;5987;53.140;8.904;2022-07-29T06:38:25;3.63;;;2.50;;
11854;SDS011;5987;53.140;8.904;2022-07-29T06:41:35;6.53;;;2.60;;
11854;SDS011;5987;53.140;8.904;2022-07-29T06:44:39;3.80;;;1.90;;
11854;SDS011;5987;53.140;8.904;2022-07-29T06:47:43;3.77;;;2.10;;
11854;SDS011;5987;53.140;8.904;2022-07-29T06:50:47;5.53;;;2.53;;
11854;SDS011;5987;53.140;8.904;2022-07-29T06:53:51;4.10;;;2.40;;
11854;SDS011;5987;53.140;8.904;2022-07-29T06:57:04;3.67;;;2.53;;
11854;SDS011;5987;53.140;8.904;2022-07-29T07:00:08;7.70;;;2.73;;
11854;SDS011;5987;53.140;8.904;2022-07-29T07:03:14;4.23;;;2.37;;
11854;SDS011;5987;53.140;8.904;2022-07-29T07:06:18;2.83;;;2.20;;
11854;SDS011;5987;53.140;8.904;2022-07-29T07:09:22;3.40;;;2.67;;
11854;SDS011;5987;53.140;8.904;2022-07-29T07:12:41;4.83;;;2.70;;
11854;SDS011;5987;53.140;8.904;2022-07-29T07:15:46;3.60;;;2.30;;
11854;SDS011;5987;53.140;8.904;2022-07-29T07:18:50;4.53;;;2.47;;
11854;SDS011;5987;53.140;8.904;2022-07-29T07:21:53;3.40;;;2.47;;
11854;SDS011;5987;53.140;8.904;2022-07-29T07:24:57;6.00;;;2.60;;
11854;SDS011;5987;53.140;8.904;2022-07-29T07:28:03;5.83;;;2.43;;
11854;SDS011;5987;53.140;8.904;2022-07-29T07:31:06;2.83;;;2.00;;
11854;SDS011;5987;53.140;8.904;2022-07-29T07:34:11;4.00;;;2.20;;
11854;SDS011;5987;53.140;8.904;2022-07-29T07:37:16;3.87;;;2.27;;
11854;SDS011;5987;53.140;8.904;2022-07-29T07:40:20;5.47;;;2.27;;
11854;SDS011;5987;53.140;8.904;2022-07-29T07:43:26;3.53;;;2.23;;
11854;SDS011;5987;53.140;8.904;2022-07-29T07:46:30;6.37;;;2.30;;
11854;SDS011;5987;53.140;8.904;2022-07-29T07:49:33;4.40;;;2.20;;
11854;SDS011;5987;53.140;8.904;2022-07-29T07:52:45;4.03;;;2.20;;
11854;SDS011;5987;53.140;8.904;2022-07-29T07:55:51;5.97;;;2.33;;
11854;SDS011;5987;53.140;8.904;2022-07-29T07:59:14;5.80;;;2.23;;
11854;SDS011;5987;53.140;8.904;2022-07-29T08:02:18;3.17;;;1.90;;
11854;SDS011;5987;53.140;8.904;2022-07-29T08:05:22;6.43;;;2.13;;
11854;SDS011;5987;53.140;8.904;2022-07-29T08:08:26;2.57;;;2.13;;
11854;SDS011;5987;53.140;8.904;2022-07-29T08:11:30;4.77;;;2.30;;
11854;SDS011;5987;53.140;8.904;2022-07-29T08:14:39;3.20;;;1.70;;
11854;SDS011;5987;53.140;8.904;2022-07-29T08:17:43;4.03;;;2.27;;
11854;SDS011;5987;53.140;8.904;2022-07-29T08:20:47;3.33;;;2.17;;
11854;SDS011;5987;53.140;8.904;2022-07-29T08:23:51;5.43;;;2.80;;
11854;SDS011;5987;53.140;8.904;2022-07-29T08:27:15;5.20;;;1.97;;
11854;SDS011;5987;53.140;8.904;2022-07-29T08:30:40;5.00;;;1.90;;
11854;SDS011;5987;53.140;8.904;2022-07-29T08:33:44;4.33;;;2.10;;
11854;SDS011;5987;53.140;8.904;2022-07-29T08:36:48;3.23;;;1.90;;
11854;SDS011;5987;53.140;8.904;2022-07-29T08:39:51;5.10;;;2.17;;
11854;SDS011;5987;53.140;8.904;2022-07-29T08:42:55;2.33;;;1.73;;
11854;SDS011;5987;53.140;8.904;2022-07-29T08:46:00;5.57;;;1.90;;
11854;SDS011;5987;53.140;8.904;2022-07-29T08:49:04;4.40;;;2.30;;
11854;SDS011;5987;53.140;8.904;2022-07-29T08:52:10;3.77;;;1.63;;
11854;SDS011;5987;53.140;8.904;2022-07-29T08:55:14;3.43;;;1.90;;
11854;SDS011;5987;53.140;8.904;2022-07-29T08:58:21;4.50;;;2.07;;
11854;SDS011;5987;53.140;8.904;2022-07-29T09:01:28;4.33;;;2.13;;
11854;SDS011;5987;53.140;8.904;2022-07-29T09:04:43;4.93;;;2.47;;
11854;SDS011;5987;53.140;8.904;2022-07-29T09:07:47;2.93;;;1.83;;
11854;SDS011;5987;53.140;8.904;2022-07-29T09:10:51;3.67;;;1.83;;
11854;SDS011;5987;53.140;8.904;2022-07-29T09:13:57;4.23;;;2.27;;
11854;SDS011;5987;53.140;8.904;2022-07-29T09:17:02;2.37;;;1.63;;
11854;SDS011;5987;53.140;8.904;2022-07-29T09:20:08;2.67;;;1.90;;
11854;SDS011;5987;53.140;8.904;2022-07-29T09:23:14;3.77;;;2.40;;
11854;SDS011;5987;53.140;8.904;2022-07-29T09:26:27;4.07;;;1.97;;
11854;SDS011;5987;53.140;8.904;2022-07-29T09:29:32;7.43;;;1.90;;
11854;SDS011;5987;53.140;8.904;2022-07-29T09:36:03;6.90;;;2.30;;
11854;SDS011;5987;53.140;8.904;2022-07-29T09:39:09;1.87;;;1.60;;
11854;SDS011;5987;53.140;8.904;2022-07-29T09:42:13;4.97;;;1.80;;
11854;SDS011;5987;53.140;8.904;2022-07-29T09:45:34;5.90;;;1.93;;
11854;SDS011;5987;53.140;8.904;2022-07-29T09:48:40;4.57;;;1.70;;
11854;SDS011;5987;53.140;8.904;2022-07-29T09:51:44;3.83;;;1.70;;
11854;SDS011;5987;53.140;8.904;2022-07-29T09:54:48;3.97;;;2.00;;
11854;SDS011;5987;53.140;8.904;2022-07-29T09:57:52;2.07;;;1.60;;
11854;SDS011;5987;53.140;8.904;2022-07-29T10:00:56;4.87;;;1.70;;
11854;SDS011;5987;53.140;8.904;2022-07-29T10:04:01;4.93;;;1.70;;
11854;SDS011;5987;53.140;8.904;2022-07-29T10:07:05;3.57;;;1.70;;
11854;SDS011;5987;53.140;8.904;2022-07-29T10:10:09;3.17;;;1.60;;
11854;SDS011;5987;53.140;8.904;2022-07-29T10:13:14;2.83;;;1.43;;
11854;SDS011;5987;53.140;8.904;2022-07-29T10:16:17;3.70;;;1.73;;
11854;SDS011;5987;53.140;8.904;2022-07-29T10:19:22;2.13;;;1.40;;
11854;SDS011;5987;53.140;8.904;2022-07-29T10:22:27;6.63;;;2.17;;
11854;SDS011;5987;53.140;8.904;2022-07-29T10:25:51;3.63;;;1.80;;
11854;SDS011;5987;53.140;8.904;2022-07-29T10:28:55;5.63;;;1.87;;
11854;SDS011;5987;53.140;8.904;2022-07-29T10:32:07;4.27;;;1.70;;
11854;SDS011;5987;53.140;8.904;2022-07-29T10:35:47;4.97;;;1.70;;
11854;SDS011;5987;53.140;8.904;2022-07-29T10:39:17;3.60;;;1.63;;
11854;SDS011;5987;53.140;8.904;2022-07-29T10:42:49;3.67;;;1.77;;
11854;SDS011;5987;53.140;8.904;2022-07-29T10:45:57;2.23;;;1.60;;
11854;SDS011;5987;53.140;8.904;2022-07-29T10:49:08;5.27;;;1.50;;
11854;SDS011;5987;53.140;8.904;2022-07-29T10:52:18;2.13;;;1.37;;
11854;SDS011;5987;53.140;8.904;2022-07-29T10:55:31;3.13;;;1.50;;
11854;SDS011;5987;53.140;8.904;2022-07-29T10:58:38;3.87;;;1.57;;
11854;SDS011;5987;53.140;8.904;2022-07-29T11:01:53;2.33;;;1.70;;
11854;SDS011;5987;53.140;8.904;2022-07-29T11:05:18;2.87;;;1.47;;
11854;SDS011;5987;53.140;8.904;2022-07-29T11:08:24;3.47;;;1.50;;
11854;SDS011;5987;53.140;8.904;2022-07-29T11:11:32;3.63;;;1.30;;
11854;SDS011;5987;53.140;8.904;2022-07-29T11:14:57;2.73;;;1.30;;
11854;SDS011;5987;53.140;8.904;2022-07-29T11:18:06;2.80;;;1.20;;
11854;SDS011;5987;53.140;8.904;2022-07-29T11:21:34;2.17;;;1.20;;
11854;SDS011;5987;53.140;8.904;2022-07-29T11:28:43;1.33;;;1.10;;
11854;SDS011;5987;53.140;8.904;2022-07-29T11:32:08;5.07;;;1.57;;
11854;SDS011;5987;53.140;8.904;2022-07-29T11:35:19;4.80;;;1.60;;
11854;SDS011;5987;53.140;8.904;2022-07-29T11:38:40;2.77;;;1.30;;
11854;SDS011;5987;53.140;8.904;2022-07-29T11:41:46;2.30;;;1.20;;
11854;SDS011;5987;53.140;8.904;2022-07-29T11:44:53;5.43;;;1.77;;
11854;SDS011;5987;53.140;8.904;2022-07-29T11:47:58;2.97;;;1.37;;
11854;SDS011;5987;53.140;8.904;2022-07-29T11:51:22;7.67;;;1.50;;
11854;SDS011;5987;53.140;8.904;2022-07-29T11:54:34;2.20;;;1.30;;
11854;SDS011;5987;53.140;8.904;2022-07-29T11:58:02;4.30;;;1.63;;
11854;SDS011;5987;53.140;8.904;2022-07-29T12:01:06;3.03;;;1.20;;
11854;SDS011;5987;53.140;8.904;2022-07-29T12:04:09;3.97;;;1.10;;
11854;SDS011;5987;53.140;8.904;2022-07-29T12:07:14;3.63;;;1.40;;
11854;SDS011;5987;53.140;8.904;2022-07-29T12:10:18;1.53;;;1.20;;
11854;SDS011;5987;53.140;8.904;2022-07-29T12:13:32;3.77;;;1.70;;
11854;SDS011;5987;53.140;8.904;2022-07-29T12:16:42;5.27;;;1.40;;
11854;SDS011;5987;53.140;8.904;2022-07-29T12:19:46;3.57;;;1.50;;
11854;SDS011;5987;53.140;8.904;2022-07-29T12:22:51;2.80;;;1.50;;
11854;SDS011;5987;53.140;8.904;2022-07-29T12:25:57;3.20;;;1.40;;
11854;SDS011;5987;53.140;8.904;2022-07-29T12:29:03;3.37;;;1.57;;
11854;SDS011;5987;53.140;8.904;2022-07-29T12:32:11;3.57;;;1.40;;
11854;SDS011;5987;53.140;8.904;2022-07-29T12:35:20;4.30;;;1.40;;
11854;SDS011;5987;53.140;8.904;2022-07-29T12:38:24;3.63;;;1.23;;
11854;SDS011;5987;53.140;8.904;2022-07-29T12:41:29;2.90;;;1.30;;
11854;SDS011;5987;53.140;8.904;2022-07-29T12:44:48;3.13;;;1.70;;
11854;SDS011;5987;53.140;8.904;2022-07-29T12:47:53;2.47;;;1.20;;
11854;SDS011;5987;53.140;8.904;2022-07-29T12:50:57;5.90;;;1.63;;
11854;SDS011;5987;53.140;8.904;2022-07-29T12:54:05;3.80;;;1.60;;
11854;SDS011;5987;53.140;8.904;2022-07-29T12:57:12;5.33;;;1.20;;
11854;SDS011;5987;53.140;8.904;2022-07-29T13:00:23;4.97;;;1.20;;
11854;SDS011;5987;53.140;8.904;2022-07-29T13:03:27;1.83;;;1.20;;
11854;SDS011;5987;53.140;8.904;2022-07-29T13:06:37;5.67;;;1.63;;
11854;SDS011;5987;53.140;8.904;2022-07-29T13:09:46;2.47;;;1.53;;
11854;SDS011;5987;53.140;8.904;2022-07-29T13:13:02;3.70;;;1.30;;
11854;SDS011;5987;53.140;8.904;2022-07-29T13:16:10;3.97;;;1.17;;
11854;SDS011;5987;53.140;8.904;2022-07-29T13:19:14;2.33;;;1.50;;
11854;SDS011;5987;53.140;8.904;2022-07-29T13:22:19;3.80;;;1.47;;
11854;SDS011;5987;53.140;8.904;2022-07-29T13:25:25;3.63;;;1.50;;
11854;SDS011;5987;53.140;8.904;2022-07-29T13:28:31;3.73;;;1.70;;
11854;SDS011;5987;53.140;8.904;2022-07-29T13:31:36;3.00;;;1.47;;
11854;SDS011;5987;53.140;8.904;2022-07-29T13:34:40;5.13;;;1.97;;
11854;SDS011;5987;53.140;8.904;2022-07-29T13:37:44;1.53;;;1.30;;
11854;SDS011;5987;53.140;8.904;2022-07-29T13:40:48;4.50;;;1.63;;
11854;SDS011;5987;53.140;8.904;2022-07-29T13:43:52;3.23;;;1.63;;
11854;SDS011;5987;53.140;8.904;2022-07-29T13:46:57;3.47;;;1.80;;
11854;SDS011;5987;53.140;8.904;2022-07-29T13:50:01;3.33;;;1.40;;
11854;SDS011;5987;53.140;8.904;2022-07-29T13:53:07;4.43;;;1.90;;
11854;SDS011;5987;53.140;8.904;2022-07-29T13:56:18;1.57;;;1.20;;
11854;SDS011;5987;53.140;8.904;2022-07-29T13:59:22;4.10;;;1.40;;
11854;SDS011;5987;53.140;8.904;2022-07-29T14:02:27;3.67;;;1.50;;
11854;SDS011;5987;53.140;8.904;2022-07-29T14:05:31;2.73;;;1.40;;
11854;SDS011;5987;53.140;8.904;2022-07-29T14:08:35;3.27;;;1.60;;
11854;SDS011;5987;53.140;8.904;2022-07-29T14:11:39;2.20;;;1.33;;
11854;SDS011;5987;53.140;8.904;2022-07-29T14:14:42;1.90;;;1.30;;
11854;SDS011;5987;53.140;8.904;2022-07-29T14:17:49;4.47;;;1.50;;
11854;SDS011;5987;53.140;8.904;2022-07-29T14:20:52;5.00;;;1.90;;
11854;SDS011;5987;53.140;8.904;2022-07-29T14:23:56;2.23;;;1.20;;
11854;SDS011;5987;53.140;8.904;2022-07-29T14:27:00;4.40;;;1.67;;
11854;SDS011;5987;53.140;8.904;2022-07-29T14:30:04;2.87;;;1.63;;
11854;SDS011;5987;53.140;8.904;2022-07-29T14:33:11;3.00;;;1.80;;
11854;SDS011;5987;53.140;8.904;2022-07-29T14:36:15;4.40;;;1.60;;
11854;SDS011;5987;53.140;8.904;2022-07-29T14:39:19;5.27;;;1.50;;
11854;SDS011;5987;53.140;8.904;2022-07-29T14:42:22;2.17;;;1.83;;
11854;SDS011;5987;53.140;8.904;2022-07-29T14:45:26;2.33;;;1.30;;
11854;SDS011;5987;53.140;8.904;2022-07-29T14:48:32;3.70;;;1.20;;
11854;SDS011;5987;53.140;8.904;2022-07-29T14:51:36;2.77;;;1.50;;
11854;SDS011;5987;53.140;8.904;2022-07-29T14:54:40;2.90;;;1.43;;
11854;SDS011;5987;53.140;8.904;2022-07-29T14:57:44;3.10;;;1.53;;
11854;SDS011;5987;53.140;8.904;2022-07-29T15:00:48;3.77;;;1.73;;
11854;SDS011;5987;53.140;8.904;2022-07-29T15:03:53;3.87;;;1.30;;
11854;SDS011;5987;53.140;8.904;2022-07-29T15:07:00;3.40;;;1.40;;
11854;SDS011;5987;53.140;8.904;2022-07-29T15:10:04;2.47;;;1.30;;
11854;SDS011;5987;53.140;8.904;2022-07-29T15:13:08;4.50;;;1.70;;
11854;SDS011;5987;53.140;8.904;2022-07-29T15:16:12;2.60;;;1.60;;
11854;SDS011;5987;53.140;8.904;2022-07-29T15:19:17;5.17;;;1.50;;
11854;SDS011;5987;53.140;8.904;2022-07-29T15:22:21;2.50;;;1.30;;
11854;SDS011;5987;53.140;8.904;2022-07-29T15:25:25;3.07;;;1.33;;
11854;SDS011;5987;53.140;8.904;2022-07-29T15:28:29;1.97;;;1.60;;
11854;SDS011;5987;53.140;8.904;2022-07-29T15:31:32;4.30;;;1.80;;
11854;SDS011;5987;53.140;8.904;2022-07-29T15:34:38;4.13;;;1.67;;
11854;SDS011;5987;53.140;8.904;2022-07-29T15:37:41;4.97;;;1.40;;
11854;SDS011;5987;53.140;8.904;2022-07-29T15:40:49;3.93;;;1.67;;
11854;SDS011;5987;53.140;8.904;2022-07-29T15:43:53;3.37;;;1.53;;
11854;SDS011;5987;53.140;8.904;2022-07-29T15:46:57;4.33;;;1.70;;
11854;SDS011;5987;53.140;8.904;2022-07-29T15:50:09;4.83;;;2.50;;
11854;SDS011;5987;53.140;8.904;2022-07-29T15:53:16;4.10;;;1.93;;
11854;SDS011;5987;53.140;8.904;2022-07-29T15:56:20;4.23;;;2.27;;
11854;SDS011;5987;53.140;8.904;2022-07-29T15:59:24;7.40;;;1.67;;
11854;SDS011;5987;53.140;8.904;2022-07-29T16:02:29;3.17;;;1.30;;
11854;SDS011;5987;53.140;8.904;2022-07-29T16:05:34;4.13;;;1.67;;
11854;SDS011;5987;53.140;8.904;2022-07-29T16:08:38;3.43;;;1.50;;
11854;SDS011;5987;53.140;8.904;2022-07-29T16:11:41;2.90;;;1.57;;
11854;SDS011;5987;53.140;8.904;2022-07-29T16:14:47;4.17;;;1.77;;
11854;SDS011;5987;53.140;8.904;2022-07-29T16:17:52;3.70;;;1.50;;
11854;SDS011;5987;53.140;8.904;2022-07-29T16:20:57;4.77;;;1.70;;
11854;SDS011;5987;53.140;8.904;2022-07-29T16:24:01;5.03;;;1.63;;
11854;SDS011;5987;53.140;8.904;2022-07-29T16:27:06;5.03;;;1.70;;
11854;SDS011;5987;53.140;8.904;2022-07-29T16:30:10;6.07;;;1.73;;
11854;SDS011;5987;53.140;8.904;2022-07-29T16:33:14;3.67;;;1.83;;
11854;SDS011;5987;53.140;8.904;2022-07-29T16:36:19;7.30;;;1.47;;
11854;SDS011;5987;53.140;8.904;2022-07-29T16:39:24;2.27;;;1.47;;
11854;SDS011;5987;53.140;8.904;2022-07-29T16:42:37;3.00;;;1.60;;
11854;SDS011;5987;53.140;8.904;2022-07-29T16:45:48;2.90;;;1.70;;
11854;SDS011;5987;53.140;8.904;2022-07-29T16:48:52;7.27;;;2.10;;
11854;SDS011;5987;53.140;8.904;2022-07-29T16:51:58;3.30;;;1.40;;
11854;SDS011;5987;53.140;8.904;2022-07-29T16:55:01;3.57;;;1.93;;
11854;SDS011;5987;53.140;8.904;2022-07-29T16:58:06;4.83;;;1.90;;
11854;SDS011;5987;53.140;8.904;2022-07-29T17:01:11;2.73;;;1.40;;
11854;SDS011;5987;53.140;8.904;2022-07-29T17:04:15;2.57;;;1.63;;
11854;SDS011;5987;53.140;8.904;2022-07-29T17:07:20;3.27;;;2.00;;
11854;SDS011;5987;53.140;8.904;2022-07-29T17:10:24;4.87;;;1.73;;
11854;SDS011;5987;53.140;8.904;2022-07-29T17:13:28;3.30;;;1.53;;
11854;SDS011;5987;53.140;8.904;2022-07-29T17:16:32;4.00;;;1.70;;
11854;SDS011;5987;53.140;8.904;2022-07-29T17:19:36;3.97;;;1.77;;
11854;SDS011;5987;53.140;8.904;2022-07-29T17:22:41;3.93;;;1.80;;
11854;SDS011;5987;53.140;8.904;2022-07-29T17:25:45;5.50;;;1.80;;
11854;SDS011;5987;53.140;8.904;2022-07-29T17:28:49;5.03;;;1.87;;
11854;SDS011;5987;53.140;8.904;2022-07-29T17:31:54;3.67;;;1.87;;
11854;SDS011;5987;53.140;8.904;2022-07-29T17:34:58;4.00;;;1.97;;
11854;SDS011;5987;53.140;8.904;2022-07-29T17:38:03;5.33;;;2.20;;
11854;SDS011;5987;53.140;8.904;2022-07-29T17:41:06;6.27;;;2.37;;
11854;SDS011;5987;53.140;8.904;2022-07-29T17:44:10;5.87;;;2.17;;
11854;SDS011;5987;53.140;8.904;2022-07-29T17:47:14;3.93;;;2.47;;
11854;SDS011;5987;53.140;8.904;2022-07-29T17:50:18;6.13;;;2.60;;
11854;SDS011;5987;53.140;8.904;2022-07-29T17:53:23;8.10;;;2.50;;
11854;SDS011;5987;53.140;8.904;2022-07-29T17:56:27;3.87;;;2.17;;
11854;SDS011;5987;53.140;8.904;2022-07-29T17:59:30;5.03;;;2.47;;
11854;SDS011;5987;53.140;8.904;2022-07-29T18:02:34;6.40;;;2.40;;
11854;SDS011;5987;53.140;8.904;2022-07-29T18:05:38;4.70;;;2.63;;
11854;SDS011;5987;53.140;8.904;2022-07-29T18:08:43;3.50;;;2.30;;
11854;SDS011;5987;53.140;8.904;2022-07-29T18:11:48;4.57;;;2.73;;
11854;SDS011;5987;53.140;8.904;2022-07-29T18:14:52;5.67;;;2.70;;
11854;SDS011;5987;53.140;8.904;2022-07-29T18:17:55;6.07;;;2.70;;
11854;SDS011;5987;53.140;8.904;2022-07-29T18:20:59;3.40;;;2.13;;
11854;SDS011;5987;53.140;8.904;2022-07-29T18:24:05;5.77;;;2.30;;
11854;SDS011;5987;53.140;8.904;2022-07-29T18:27:09;2.77;;;2.20;;
11854;SDS011;5987;53.140;8.904;2022-07-29T18:30:13;6.60;;;2.40;;
11854;SDS011;5987;53.140;8.904;2022-07-29T18:33:17;5.20;;;1.90;;
11854;SDS011;5987;53.140;8.904;2022-07-29T18:36:23;5.73;;;2.50;;
11854;SDS011;5987;53.140;8.904;2022-07-29T18:39:28;3.73;;;2.40;;
11854;SDS011;5987;53.140;8.904;2022-07-29T18:42:31;7.80;;;3.20;;
11854;SDS011;5987;53.140;8.904;2022-07-29T18:45:35;6.30;;;3.67;;
11854;SDS011;5987;53.140;8.904;2022-07-29T18:48:40;4.00;;;2.57;;
11854;SDS011;5987;53.140;8.904;2022-07-29T18:51:43;6.60;;;2.80;;
11854;SDS011;5987;53.140;8.904;2022-07-29T18:54:48;7.70;;;2.93;;
11854;SDS011;5987;53.140;8.904;2022-07-29T18:57:52;3.57;;;2.33;;
11854;SDS011;5987;53.140;8.904;2022-07-29T19:00:57;3.63;;;1.93;;
11854;SDS011;5987;53.140;8.904;2022-07-29T19:04:02;5.83;;;2.57;;
11854;SDS011;5987;53.140;8.904;2022-07-29T19:07:06;4.50;;;2.67;;
11854;SDS011;5987;53.140;8.904;2022-07-29T19:10:11;4.30;;;2.27;;